Time;durP1;ratioP1;P1;durP2;ratioP2;P2;SDS_P1;SDS_P2;PMS_P1;PMS_P2;Temp;Humidity;BMP_temperature;BMP_pressure;BME280_temperature;BME280_humidity;BME280_pressure;Samples;Min_cycle;Max_cycle;Signal;HPM_P1;HPM_P2
2022/07/26 00:00:08;;;;;;;8.48;6.82;;;;;;;18.79;100.00;100230.28;4948425;28;20053;-81
2022/07/26 00:02:35;;;;;;;8.20;7.40;;;;;;;18.77;100.00;100234.88;4937147;28;20046;-81
2022/07/26 00:05:03;;;;;;;9.48;7.35;;;;;;;18.76;100.00;100245.69;4950886;28;20039;-81
2022/07/26 00:07:34;;;;;;;8.55;6.97;;;;;;;18.73;100.00;100249.38;4938969;28;20062;-82
2022/07/26 00:10:04;;;;;;;9.65;7.80;;;;;;;18.73;100.00;100244.03;4936948;28;20093;-82
2022/07/26 00:12:32;;;;;;;10.52;7.35;;;;;;;18.68;100.00;100247.94;4960719;28;20043;-82
2022/07/26 00:14:58;;;;;;;8.68;6.70;;;;;;;18.67;100.00;100255.13;4927365;28;20039;-82
2022/07/26 00:17:26;;;;;;;10.35;7.95;;;;;;;18.70;100.00;100256.75;4957242;28;20050;-80
2022/07/26 00:19:56;;;;;;;9.20;7.70;;;;;;;18.69;100.00;100250.53;4933504;28;20050;-80
2022/07/26 00:22:35;;;;;;;10.63;7.30;;;;;;;18.79;100.00;100243.66;4948364;28;20062;-82
2022/07/26 00:25:04;;;;;;;9.65;6.55;;;;;;;18.68;100.00;100231.91;4952509;28;20054;-80
2022/07/26 00:27:35;;;;;;;8.68;6.40;;;;;;;18.58;100.00;100228.84;4945570;28;20038;-81
2022/07/26 00:30:07;;;;;;;9.13;6.90;;;;;;;18.52;100.00;100250.66;4936592;28;20051;-83
2022/07/26 00:32:35;;;;;;;9.40;7.10;;;;;;;18.50;100.00;100250.75;4922035;28;20047;-82
2022/07/26 00:35:02;;;;;;;7.53;6.28;;;;;;;18.49;100.00;100242.78;4955621;28;20054;-82
2022/07/26 00:37:29;;;;;;;7.63;6.53;;;;;;;18.45;100.00;100241.25;4951826;28;20073;-82
2022/07/26 00:39:58;;;;;;;8.30;7.05;;;;;;;18.39;100.00;100246.97;4938057;28;20053;-81
2022/07/26 00:42:25;;;;;;;6.60;5.78;;;;;;;18.34;100.00;100252.63;4964388;28;20185;-79
2022/07/26 00:44:52;;;;;;;7.53;6.07;;;;;;;18.33;100.00;100258.03;4951434;28;20046;-80
2022/07/26 00:47:19;;;;;;;6.25;5.65;;;;;;;18.29;100.00;100260.88;4935503;28;20445;-79
2022/07/26 00:49:45;;;;;;;9.50;7.38;;;;;;;18.28;100.00;100264.53;4949527;28;20043;-78
2022/07/26 00:52:12;;;;;;;8.68;6.53;;;;;;;18.25;100.00;100266.53;4950319;28;20085;-78
2022/07/26 00:54:42;;;;;;;9.38;7.05;;;;;;;18.23;100.00;100263.91;4937481;28;20043;-79
2022/07/26 00:57:09;;;;;;;10.75;6.93;;;;;;;18.16;100.00;100273.28;4956592;28;20054;-79
2022/07/26 00:59:36;;;;;;;8.18;6.28;;;;;;;18.14;100.00;100287.66;4933419;28;20046;-78
2022/07/26 01:02:04;;;;;;;8.25;7.15;;;;;;;18.12;100.00;100277.06;4931290;28;20039;-78
2022/07/26 01:04:31;;;;;;;8.55;6.40;;;;;;;18.11;100.00;100271.81;4951271;28;20078;-81
2022/07/26 01:06:58;;;;;;;9.45;6.55;;;;;;;18.16;100.00;100280.41;4946475;28;20027;-79
2022/07/26 01:09:25;;;;;;;7.93;6.82;;;;;;;18.10;100.00;100292.34;4952446;28;20051;-81
2022/07/26 01:11:52;;;;;;;9.25;7.25;;;;;;;18.08;100.00;100294.25;4945095;28;20098;-79
2022/07/26 01:14:20;;;;;;;8.70;6.63;;;;;;;18.06;100.00;100300.59;4931063;28;20445;-79
2022/07/26 01:16:47;;;;;;;8.00;6.90;;;;;;;18.07;100.00;100291.63;4934631;28;20059;-80
2022/07/26 01:19:14;;;;;;;8.73;7.50;;;;;;;18.09;100.00;100285.25;4946444;28;20108;-79
2022/07/26 01:21:40;;;;;;;7.60;6.13;;;;;;;18.05;100.00;100275.69;4949828;28;20946;-80
2022/07/26 01:24:07;;;;;;;8.05;6.88;;;;;;;18.01;100.00;100266.13;4936317;28;20034;-81
2022/07/26 01:26:35;;;;;;;8.00;6.88;;;;;;;17.97;100.00;100270.78;4936040;28;20038;-82
2022/07/26 01:29:02;;;;;;;10.80;8.68;;;;;;;18.05;100.00;100261.47;4954193;28;20031;-79
2022/07/26 01:31:29;;;;;;;12.50;9.13;;;;;;;17.99;100.00;100252.84;4957320;28;20459;-81
2022/07/26 01:33:56;;;;;;;9.25;7.95;;;;;;;18.03;100.00;100253.53;4953439;28;20047;-80
2022/07/26 01:36:23;;;;;;;11.10;7.78;;;;;;;18.03;100.00;100258.03;4951445;28;20121;-80
2022/07/26 01:38:49;;;;;;;10.93;8.48;;;;;;;18.08;100.00;100263.97;4949132;28;20041;-78
2022/07/26 01:41:16;;;;;;;13.38;8.63;;;;;;;18.10;100.00;100265.59;4933545;28;20050;-78
2022/07/26 01:43:56;;;;;;;9.63;7.57;;;;;;;18.11;100.00;100264.63;4952423;28;20638;-80
2022/07/26 01:46:23;;;;;;;11.38;9.27;;;;;;;18.09;100.00;100268.38;4949421;28;20101;-80
2022/07/26 01:48:51;;;;;;;10.90;8.25;;;;;;;18.05;100.00;100274.81;4947451;28;20488;-80
2022/07/26 01:51:20;;;;;;;9.77;7.60;;;;;;;18.05;100.00;100272.16;4933070;28;20043;-80
2022/07/26 01:53:47;;;;;;;10.60;8.48;;;;;;;18.03;100.00;100258.03;4948266;28;20057;-81
2022/07/26 01:56:15;;;;;;;9.27;7.28;;;;;;;18.00;100.00;100267.94;4948344;28;20388;-79
2022/07/26 01:58:43;;;;;;;9.18;7.63;;;;;;;18.03;100.00;100271.38;4914911;28;20031;-81
2022/07/26 02:01:10;;;;;;;9.55;7.85;;;;;;;18.00;100.00;100273.28;4966951;28;20066;-77
2022/07/26 02:03:36;;;;;;;9.40;7.68;;;;;;;17.94;100.00;100265.63;4958431;28;20038;-78
2022/07/26 02:06:04;;;;;;;10.45;7.80;;;;;;;17.94;100.00;100270.09;4952212;28;20047;-80
2022/07/26 02:08:31;;;;;;;10.65;7.50;;;;;;;17.96;100.00;100270.88;4960892;28;20101;-79
2022/07/26 02:10:59;;;;;;;10.98;7.18;;;;;;;17.92;100.00;100272.88;4939705;28;20054;-79
2022/07/26 02:13:37;;;;;;;9.80;7.82;;;;;;;17.87;100.00;100276.75;4956013;28;20042;-78
2022/07/26 02:16:07;;;;;;;7.57;6.45;;;;;;;17.83;100.00;100269.84;4953353;28;20047;-79
2022/07/26 02:18:36;;;;;;;10.40;6.63;;;;;;;17.78;100.00;100278.13;4949414;28;20495;-80
2022/07/26 02:21:04;;;;;;;9.50;7.43;;;;;;;17.77;100.00;100278.22;4942643;28;20163;-79
2022/07/26 02:23:32;;;;;;;7.78;6.10;;;;;;;17.70;100.00;100283.88;4933611;28;20042;-80
2022/07/26 02:25:59;;;;;;;8.77;7.22;;;;;;;17.69;100.00;100281.28;4934286;28;21936;-79
2022/07/26 02:28:26;;;;;;;9.35;7.25;;;;;;;17.61;100.00;100286.19;4950751;28;20031;-80
2022/07/26 02:30:53;;;;;;;7.00;6.30;;;;;;;17.53;100.00;100291.94;4934938;28;20051;-81
2022/07/26 02:33:22;;;;;;;7.35;6.05;;;;;;;17.44;100.00;100287.09;4947620;28;20130;-79
2022/07/26 02:35:49;;;;;;;7.25;5.72;;;;;;;17.40;100.00;100288.22;4946931;28;20157;-79
2022/07/26 02:38:16;;;;;;;8.88;6.88;;;;;;;17.38;100.00;100290.09;4932623;28;20126;-79
2022/07/26 02:40:43;;;;;;;7.60;6.57;;;;;;;17.33;100.00;100290.38;4935276;28;20074;-80
2022/07/26 02:43:10;;;;;;;6.68;5.40;;;;;;;17.30;100.00;100292.34;4919975;28;20048;-78
2022/07/26 02:45:37;;;;;;;8.77;6.68;;;;;;;17.29;100.00;100285.28;4939586;28;20054;-79
2022/07/26 02:48:04;;;;;;;9.23;7.13;;;;;;;17.29;100.00;100293.28;4935801;28;20039;-80
2022/07/26 02:50:30;;;;;;;8.32;6.65;;;;;;;17.29;100.00;100285.28;4970742;28;20419;-80
2022/07/26 02:52:57;;;;;;;8.75;6.55;;;;;;;17.30;100.00;100284.31;4935033;28;20053;-80
2022/07/26 02:55:25;;;;;;;7.35;6.50;;;;;;;17.30;100.00;100292.34;4932192;28;20051;-81
2022/07/26 02:57:51;;;;;;;9.18;7.07;;;;;;;17.30;100.00;100300.34;4932441;28;20046;-80
2022/07/26 03:00:22;;;;;;;7.95;6.50;;;;;;;17.33;100.00;100294.84;4931240;28;20054;-80
2022/07/26 03:02:50;;;;;;;9.45;7.05;;;;;;;17.35;100.00;100299.16;4945238;28;20035;-80
2022/07/26 03:05:17;;;;;;;11.73;7.93;;;;;;;17.38;100.00;100300.78;4950814;28;20093;-79
2022/07/26 03:07:44;;;;;;;13.65;9.07;;;;;;;17.49;100.00;100301.09;4950173;28;20041;-80
2022/07/26 03:10:10;;;;;;;12.50;8.60;;;;;;;17.52;100.00;100297.38;4918852;28;20050;-79
2022/07/26 03:12:37;;;;;;;11.00;9.15;;;;;;;17.55;100.00;100289.19;4930527;28;20436;-81
2022/07/26 03:15:04;;;;;;;12.23;10.25;;;;;;;17.63;100.00;100295.81;4955107;28;20054;-80
2022/07/26 03:17:31;;;;;;;16.10;12.18;;;;;;;17.76;100.00;100281.84;4940553;28;20039;-82
2022/07/26 03:19:58;;;;;;;16.02;10.57;;;;;;;17.72;100.00;100291.81;4936438;28;20046;-80
2022/07/26 03:22:24;;;;;;;13.45;10.40;;;;;;;17.69;100.00;100291.97;4939976;28;20424;-80
2022/07/26 03:24:51;;;;;;;13.45;11.02;;;;;;;17.78;100.00;100295.97;4956011;28;20046;-80
2022/07/26 03:27:18;;;;;;;13.48;10.60;;;;;;;17.77;100.00;100295.09;4934156;28;20077;-81
2022/07/26 03:29:44;;;;;;;15.52;12.10;;;;;;;17.83;100.00;100292.09;4932646;28;20035;-79
2022/07/26 03:32:11;;;;;;;13.35;10.38;;;;;;;17.80;100.00;100291.38;4950666;28;20047;-80
2022/07/26 03:34:38;;;;;;;13.63;11.07;;;;;;;17.85;100.00;100289.34;4936370;28;20397;-82
2022/07/26 03:37:04;;;;;;;17.88;12.60;;;;;;;17.88;100.00;100287.34;4934024;28;20416;-80
2022/07/26 03:39:32;;;;;;;16.05;11.65;;;;;;;17.87;100.00;100284.75;4937383;28;20047;-80
2022/07/26 03:41:58;;;;;;;15.55;12.18;;;;;;;17.89;100.00;100293.53;4949842;28;20031;-80
2022/07/26 03:44:25;;;;;;;17.45;11.95;;;;;;;17.91;100.00;100284.50;4950596;28;20046;-80
2022/07/26 03:46:52;;;;;;;14.38;11.57;;;;;;;17.91;100.00;100284.50;4921184;28;20054;-80
2022/07/26 03:49:18;;;;;;;15.95;12.20;;;;;;;17.96;100.00;100290.44;4951083;28;20444;-81
2022/07/26 03:51:45;;;;;;;13.88;11.00;;;;;;;17.85;100.00;100282.19;4937234;28;20042;-80
2022/07/26 03:54:12;;;;;;;16.23;11.05;;;;;;;17.85;100.00;100283.97;4918223;28;20054;-81
2022/07/26 03:56:39;;;;;;;15.80;12.15;;;;;;;17.82;100.00;100292.16;4934537;28;20507;-81
2022/07/26 03:59:08;;;;;;;13.00;11.25;;;;;;;17.81;100.00;100291.28;4934934;28;20116;-81
2022/07/26 04:01:38;;;;;;;14.07;9.77;;;;;;;17.75;100.00;100294.34;4934932;28;20420;-81
2022/07/26 04:04:08;;;;;;;12.98;10.18;;;;;;;17.79;100.00;100292.34;4936880;28;20532;-79
2022/07/26 04:06:38;;;;;;;12.20;9.93;;;;;;;17.76;100.00;100288.03;4936616;28;20047;-81
2022/07/26 04:09:05;;;;;;;15.20;10.50;;;;;;;17.77;100.00;100299.59;4919277;28;20037;-82
2022/07/26 04:11:33;;;;;;;12.15;9.82;;;;;;;17.73;100.00;100299.75;4945607;28;20487;-81
2022/07/26 04:14:00;;;;;;;12.45;10.57;;;;;;;17.76;100.00;100297.88;4935235;28;20043;-81
2022/07/26 04:16:27;;;;;;;11.27;9.02;;;;;;;17.71;100.00;100298.09;4921332;28;20081;-83
2022/07/26 04:18:53;;;;;;;11.02;8.18;;;;;;;17.70;100.00;100296.38;4969109;28;20041;-80
2022/07/26 04:21:20;;;;;;;13.60;11.18;;;;;;;17.75;100.00;100296.16;4954090;28;20035;-81
2022/07/26 04:23:47;;;;;;;18.65;9.80;;;;;;;17.73;100.00;100294.41;4920877;28;20035;-80
2022/07/26 04:26:19;;;;;;;11.55;9.50;;;;;;;17.72;100.00;100299.81;4935383;28;20035;-79
2022/07/26 04:28:46;;;;;;;11.38;8.77;;;;;;;17.74;100.00;100297.97;4951964;28;20489;-79
2022/07/26 04:31:13;;;;;;;10.93;8.32;;;;;;;17.72;100.00;100300.69;4954117;28;20465;-81
2022/07/26 04:33:39;;;;;;;9.20;7.63;;;;;;;17.74;100.00;100300.63;4962835;28;20043;-79
2022/07/26 04:36:06;;;;;;;12.38;8.25;;;;;;;17.70;100.00;100291.91;4937123;28;20661;-80
2022/07/26 04:38:33;;;;;;;10.85;7.85;;;;;;;17.71;100.00;100296.28;4939260;28;20072;-81
2022/07/26 04:40:59;;;;;;;9.30;7.13;;;;;;;17.65;100.00;100291.25;4938430;28;20065;-79
2022/07/26 04:43:26;;;;;;;10.43;7.70;;;;;;;17.61;100.00;100296.88;4974073;28;20042;-79
2022/07/26 04:45:53;;;;;;;10.05;8.50;;;;;;;17.63;100.00;100287.81;4943843;28;20046;-82
2022/07/26 04:48:20;;;;;;;9.48;7.97;;;;;;;17.63;100.00;100295.81;4938980;28;20094;-79
2022/07/26 04:50:47;;;;;;;11.57;8.52;;;;;;;17.63;100.00;100303.84;4934860;28;20487;-80
2022/07/26 04:53:14;;;;;;;9.95;7.53;;;;;;;17.67;100.00;100297.41;4938352;28;20488;-81
2022/07/26 04:55:41;;;;;;;12.50;9.73;;;;;;;17.68;100.00;100293.78;4936506;28;20420;-82
2022/07/26 04:58:08;;;;;;;15.82;9.35;;;;;;;17.69;100.00;100306.19;4944153;28;20045;-79
2022/07/26 05:00:36;;;;;;;10.60;8.57;;;;;;;17.66;100.00;100302.84;4941765;28;20051;-80
2022/07/26 05:03:23;;;;;;;12.70;9.80;;;;;;;17.75;100.00;100306.84;4967374;28;20035;-81
2022/07/26 05:05:51;;;;;;;9.15;7.32;;;;;;;17.73;100.00;100301.53;4959347;28;20492;-79
2022/07/26 05:08:18;;;;;;;9.55;7.60;;;;;;;17.78;100.00;100302.16;4943781;28;20515;-82
2022/07/26 05:10:44;;;;;;;9.95;8.23;;;;;;;17.84;100.00;100296.50;4943825;28;20053;-81
2022/07/26 05:13:11;;;;;;;11.15;8.38;;;;;;;17.93;100.00;100295.09;4940147;28;20671;-79
2022/07/26 05:15:38;;;;;;;9.70;7.65;;;;;;;17.94;100.00;100291.47;4954693;28;20118;-83
2022/07/26 05:18:08;;;;;;;8.52;7.57;;;;;;;18.01;100.00;100300.88;4970988;28;20050;-82
2022/07/26 05:20:38;;;;;;;11.10;7.40;;;;;;;18.08;100.00;100294.25;4935175;28;20035;-81
2022/07/26 05:23:05;;;;;;;11.57;8.25;;;;;;;18.19;100.00;100301.63;4951222;28;20043;-83
2022/07/26 05:25:31;;;;;;;8.63;7.72;;;;;;;18.25;100.00;100304.81;4938886;28;20089;-80
2022/07/26 05:27:58;;;;;;;11.45;7.75;;;;;;;18.29;100.00;100306.34;4937489;28;20039;-87
2022/07/26 05:30:25;;;;;;;7.85;6.75;;;;;;;18.37;100.00;100311.25;4936049;28;20061;-85
2022/07/26 05:32:52;;;;;;;10.95;6.88;;;;;;;18.45;100.00;100302.78;4935887;28;20642;-82
2022/07/26 05:35:18;;;;;;;8.65;6.70;;;;;;;18.57;100.00;100305.59;4949701;28;20408;-85
2022/07/26 05:37:45;;;;;;;14.05;7.43;;;;;;;18.68;100.00;100314.84;4936423;28;20047;-80
2022/07/26 05:40:12;;;;;;;9.43;6.22;;;;;;;19.01;100.00;100307.47;4926203;28;20046;-82
2022/07/26 05:42:39;;;;;;;8.63;5.85;;;;;;;20.00;100.00;100304.81;4942841;28;20101;-81
2022/07/26 05:45:06;;;;;;;11.32;6.00;;;;;;;20.67;100.00;100316.47;4941407;28;20050;-80
2022/07/26 05:47:33;;;;;;;8.63;5.50;;;;;;;20.83;100.00;100313.59;4937996;28;20050;-82
2022/07/26 05:50:00;;;;;;;9.63;5.00;;;;;;;20.68;100.00;100311.03;4920083;28;20042;-81
2022/07/26 05:52:27;;;;;;;8.23;4.80;;;;;;;20.44;100.00;100316.22;4968328;28;20645;-79
2022/07/26 05:54:53;;;;;;;7.43;5.47;;;;;;;20.09;100.00;100318.50;4936406;28;20038;-83
2022/07/26 05:57:20;;;;;;;6.95;5.47;;;;;;;20.02;100.00;100319.88;4950905;28;20035;-79
2022/07/26 05:59:46;;;;;;;8.25;4.75;;;;;;;19.79;100.00;100323.19;4937322;28;20047;-83
2022/07/26 06:02:13;;;;;;;8.13;4.88;;;;;;;19.73;100.00;100327.09;4936184;28;20069;-84
2022/07/26 06:04:40;;;;;;;9.27;5.03;;;;;;;19.94;100.00;100322.19;4951585;28;20046;-79
2022/07/26 06:07:07;;;;;;;7.80;4.70;;;;;;;20.80;100.00;100330.81;4945043;28;20982;-83
2022/07/26 06:09:35;;;;;;;6.68;3.90;;;;;;;21.44;95.14;100322.78;4933832;28;20404;-83
2022/07/26 06:12:04;;;;;;;6.40;3.72;;;;;;;21.98;96.66;100339.47;4950913;28;20619;-82
2022/07/26 06:14:32;;;;;;;7.20;3.90;;;;;;;22.38;92.99;100344.66;4944657;28;20053;-84
2022/07/26 06:17:00;;;;;;;11.63;4.35;;;;;;;22.89;84.83;100347.97;4918198;28;20085;-82
2022/07/26 06:19:26;;;;;;;6.88;3.72;;;;;;;22.96;89.01;100351.91;4942878;28;20093;-81
2022/07/26 06:21:53;;;;;;;4.68;3.40;;;;;;;22.84;86.68;100352.78;4943266;29;20071;-83
2022/07/26 06:24:20;;;;;;;4.88;3.40;;;;;;;22.11;83.89;100350.22;4951326;28;20046;-82
2022/07/26 06:26:49;;;;;;;5.72;3.63;;;;;;;22.03;91.75;100356.16;4950417;28;20043;-80
2022/07/26 06:29:22;;;;;;;10.35;3.72;;;;;;;22.05;93.22;100356.03;4935670;28;20098;-81
2022/07/26 06:31:57;;;;;;;6.88;4.05;;;;;;;21.50;88.77;100362.69;4922076;28;20043;-81
2022/07/26 06:34:24;;;;;;;6.22;3.42;;;;;;;21.47;91.84;100374.53;4933713;28;20051;-83
2022/07/26 06:36:51;;;;;;;6.30;3.13;;;;;;;21.57;94.05;100372.03;4934536;28;20431;-82
2022/07/26 06:39:17;;;;;;;6.03;3.15;;;;;;;21.77;99.14;100368.78;4936355;28;20559;-83
2022/07/26 06:41:44;;;;;;;7.22;3.60;;;;;;;22.17;95.16;100364.09;4936625;28;20043;-83
2022/07/26 06:44:11;;;;;;;5.95;3.20;;;;;;;22.24;94.58;100371.72;4968128;28;20046;-81
2022/07/26 06:46:38;;;;;;;8.35;3.78;;;;;;;22.43;91.13;100364.00;4935458;28;20049;-81
2022/07/26 06:49:04;;;;;;;6.40;3.28;;;;;;;22.62;88.63;100368.88;4923627;28;20064;-81
2022/07/26 06:51:32;;;;;;;5.93;3.15;;;;;;;22.73;86.62;100361.72;4938157;28;20056;-82
2022/07/26 06:53:59;;;;;;;5.70;3.22;;;;;;;22.89;86.01;100361.44;4936577;28;20039;-81
2022/07/26 06:56:26;;;;;;;6.28;2.90;;;;;;;23.10;86.67;100376.91;4936750;28;20050;-82
2022/07/26 06:58:55;;;;;;;7.32;3.08;;;;;;;23.01;83.01;100375.78;4943056;28;20037;-80
2022/07/26 07:01:21;;;;;;;5.85;3.17;;;;;;;23.26;85.76;100372.91;4927110;28;20046;-79
2022/07/26 07:04:08;;;;;;;7.22;3.63;;;;;;;23.31;82.97;100376.13;4956575;28;20034;-81
2022/07/26 07:06:35;;;;;;;6.35;2.53;;;;;;;23.32;81.03;100376.97;4924560;28;20034;-79
2022/07/26 07:09:02;;;;;;;8.20;3.33;;;;;;;22.41;81.04;100382.97;4954791;28;20129;-80
2022/07/26 07:11:34;;;;;;;8.73;3.80;;;;;;;22.38;86.70;100385.88;4951037;28;20093;-80
2022/07/26 07:14:02;;;;;;;7.43;3.13;;;;;;;22.46;84.90;100374.56;4955568;28;20038;-80
2022/07/26 07:16:29;;;;;;;5.30;3.08;;;;;;;22.79;87.49;100376.56;4952860;28;20043;-82
2022/07/26 07:18:55;;;;;;;10.85;3.67;;;;;;;23.28;84.07;100379.03;4954694;28;20042;-80
2022/07/26 07:21:22;;;;;;;6.15;3.65;;;;;;;22.93;79.51;100379.06;4953515;28;20043;-81
2022/07/26 07:23:49;;;;;;;6.90;3.28;;;;;;;23.05;78.56;100379.13;4948394;28;20676;-79
2022/07/26 07:26:15;;;;;;;4.55;3.00;;;;;;;22.80;78.44;100388.19;4937516;28;20043;-82
2022/07/26 07:28:42;;;;;;;8.35;3.60;;;;;;;22.63;81.34;100394.84;4953443;28;20042;-82
2022/07/26 07:31:09;;;;;;;6.32;3.13;;;;;;;22.78;76.53;100388.28;4923640;28;20051;-81
2022/07/26 07:33:35;;;;;;;8.40;3.95;;;;;;;23.09;74.82;100383.28;4968285;28;20122;-82
2022/07/26 07:36:19;;;;;;;7.95;3.17;;;;;;;23.02;77.45;100383.75;4954823;28;20118;-79
2022/07/26 07:38:47;;;;;;;6.25;3.35;;;;;;;23.26;75.55;100386.38;4955678;28;20035;-80
2022/07/26 07:41:13;;;;;;;7.13;2.75;;;;;;;23.30;73.93;100387.03;4961170;28;20051;-79
2022/07/26 07:43:40;;;;;;;5.68;2.50;;;;;;;23.48;74.20;100380.19;4949346;28;20050;-79
2022/07/26 07:46:07;;;;;;;7.80;2.83;;;;;;;23.31;70.40;100388.75;4954867;28;20109;-80
2022/07/26 07:48:33;;;;;;;6.63;2.83;;;;;;;23.58;73.40;100383.88;4941661;28;20440;-79
2022/07/26 07:51:00;;;;;;;5.57;3.20;;;;;;;23.43;72.08;100384.22;4955052;28;20484;-81
2022/07/26 07:53:27;;;;;;;4.53;2.40;;;;;;;23.10;70.43;100393.06;4927284;28;20062;-80
2022/07/26 07:55:56;;;;;;;5.68;2.90;;;;;;;23.51;77.55;100390.72;4944453;28;20067;-80
2022/07/26 07:58:22;;;;;;;6.50;2.58;;;;;;;23.70;74.59;100394.69;4956052;28;20054;-80
2022/07/26 08:00:49;;;;;;;5.90;2.83;;;;;;;23.99;69.72;100395.06;4960795;28;20035;-80
2022/07/26 08:03:16;;;;;;;6.95;2.70;;;;;;;24.13;72.24;100401.06;4958523;28;20038;-80
2022/07/26 08:05:45;;;;;;;6.03;2.80;;;;;;;23.83;68.02;100390.91;4938801;28;20046;-81
2022/07/26 08:08:15;;;;;;;6.63;2.60;;;;;;;23.75;71.25;100387.97;4926984;28;20142;-80
2022/07/26 08:10:42;;;;;;;5.13;2.67;;;;;;;23.77;72.76;100390.53;4945047;28;20106;-80
2022/07/26 08:13:19;;;;;;;7.60;3.20;;;;;;;22.97;69.17;100385.09;4956278;28;20043;-81
2022/07/26 08:15:47;;;;;;;3.65;2.75;;;;;;;22.86;75.11;100380.50;4950413;28;20039;-80
2022/07/26 08:18:14;;;;;;;9.75;4.07;;;;;;;23.03;76.92;100385.47;4957658;28;20058;-80
2022/07/26 08:20:42;;;;;;;3.78;2.30;;;;;;;22.99;73.51;100389.38;4936877;28;20127;-81
2022/07/26 08:23:10;;;;;;;4.38;2.40;;;;;;;22.68;72.75;100392.63;4958628;28;20058;-80
2022/07/26 08:25:36;;;;;;;4.03;2.47;;;;;;;22.22;74.92;100395.19;4941231;28;20882;-79
2022/07/26 08:28:21;;;;;;;5.05;2.35;;;;;;;21.97;74.90;100390.72;4939095;28;21528;-79
2022/07/26 08:31:08;;;;;;;3.78;2.63;;;;;;;22.24;78.21;100396.81;4956397;28;20043;-79
2022/07/26 08:33:34;;;;;;;5.47;2.42;;;;;;;22.44;74.57;100389.94;4967224;28;20407;-79
2022/07/26 08:36:06;;;;;;;4.00;1.90;;;;;;;22.22;75.47;100396.06;4935381;28;20094;-80
2022/07/26 08:38:32;;;;;;;4.55;2.30;;;;;;;21.97;77.56;100404.16;4952330;28;20054;-78
2022/07/26 08:40:59;;;;;;;4.07;2.30;;;;;;;22.03;79.99;100407.28;4951003;28;20042;-79
2022/07/26 08:43:26;;;;;;;5.13;2.40;;;;;;;22.29;73.96;100412.63;4960068;28;20411;-81
2022/07/26 08:45:59;;;;;;;4.78;2.10;;;;;;;23.01;74.83;100400.88;4932425;28;20043;-79
2022/07/26 08:48:25;;;;;;;4.53;2.30;;;;;;;23.52;65.64;100408.63;4948675;28;20054;-80
2022/07/26 08:50:54;;;;;;;4.03;2.60;;;;;;;24.01;67.75;100406.59;4934158;28;20041;-80
2022/07/26 08:53:21;;;;;;;5.28;2.38;;;;;;;24.04;67.14;100409.88;4922121;28;20043;-80
2022/07/26 08:55:48;;;;;;;2.50;1.92;;;;;;;24.20;62.95;100408.66;4935807;28;20043;-80
2022/07/26 08:58:39;;;;;;;7.85;2.55;;;;;;;24.69;63.15;100406.38;4940507;28;20078;-81
2022/07/26 09:01:10;;;;;;;7.30;2.20;;;;;;;24.23;61.00;100413.81;4950977;28;20488;-81
2022/07/26 09:03:37;;;;;;;4.10;2.25;;;;;;;23.59;62.34;100404.50;4938112;28;20129;-79
2022/07/26 09:06:22;;;;;;;8.30;2.72;;;;;;;23.20;67.80;100415.66;4951995;28;20067;-80
2022/07/26 09:09:11;;;;;;;4.40;2.30;;;;;;;23.62;66.47;100418.72;4953885;28;20066;-79
2022/07/26 09:11:39;;;;;;;4.72;1.98;;;;;;;24.19;64.32;100405.09;4943401;28;20427;-83
2022/07/26 09:14:06;;;;;;;7.18;2.33;;;;;;;24.64;60.56;100411.31;4969357;28;20042;-81
2022/07/26 09:16:32;;;;;;;3.65;1.90;;;;;;;24.95;59.98;100412.28;4969282;28;20062;-80
2022/07/26 09:19:21;;;;;;;5.03;2.00;;;;;;;24.87;58.82;100411.22;4961614;28;20043;-80
2022/07/26 09:21:48;;;;;;;3.70;1.77;;;;;;;25.02;60.63;100411.75;4951060;28;21048;-81
2022/07/26 09:24:37;;;;;;;3.40;2.13;;;;;;;25.00;60.24;100420.00;4910126;28;20137;-81
2022/07/26 09:27:05;;;;;;;4.32;2.45;;;;;;;24.69;58.70;100410.91;4959141;28;20038;-80
2022/07/26 09:29:42;;;;;;;3.33;1.80;;;;;;;24.72;56.92;100405.28;4934566;28;20756;-79
2022/07/26 09:32:18;;;;;;;3.50;1.98;;;;;;;24.59;59.01;100410.81;4932182;28;20061;-79
2022/07/26 09:34:47;;;;;;;4.07;2.17;;;;;;;24.18;59.31;100422.28;4949680;28;20066;-80
2022/07/26 09:37:32;;;;;;;5.30;2.40;;;;;;;23.78;62.39;100420.06;4933975;28;20043;-82
2022/07/26 09:40:03;;;;;;;5.05;2.30;;;;;;;24.15;62.59;100409.91;5006951;23;20035;-78
2022/07/26 09:42:29;;;;;;;3.72;1.90;;;;;;;24.36;60.87;100419.94;4992503;28;20402;-77
2022/07/26 09:44:56;;;;;;;4.43;2.35;;;;;;;24.34;61.71;100411.97;5004020;28;20528;-76
2022/07/26 09:47:39;;;;;;;3.05;1.98;;;;;;;24.05;61.55;100417.03;5019895;28;20076;-78
2022/07/26 09:50:15;;;;;;;4.50;1.80;;;;;;;23.72;62.53;100427.81;5009533;28;20065;-78
2022/07/26 09:53:06;;;;;;;5.25;2.20;;;;;;;23.17;63.47;100429.38;5005943;28;20049;-78
2022/07/26 09:55:54;;;;;;;2.53;2.13;;;;;;;22.89;66.66;100431.47;5024140;28;20045;-78
2022/07/26 09:58:21;;;;;;;6.05;2.15;;;;;;;22.58;67.65;100449.00;5004264;28;20051;-79
2022/07/26 10:00:48;;;;;;;3.65;2.30;;;;;;;22.46;69.43;100442.72;5022051;28;20041;-78
2022/07/26 10:03:15;;;;;;;3.33;1.98;;;;;;;22.38;71.19;100442.41;5018544;28;20051;-77
2022/07/26 10:05:42;;;;;;;4.88;2.40;;;;;;;22.43;72.10;100434.84;5020306;28;20079;-78
2022/07/26 10:08:09;;;;;;;4.70;2.17;;;;;;;22.51;71.49;100439.66;5037033;28;20045;-78
2022/07/26 10:10:41;;;;;;;3.90;2.38;;;;;;;22.77;71.01;100435.03;5035442;28;20033;-77
2022/07/26 10:13:09;;;;;;;4.60;2.17;;;;;;;23.05;72.56;100436.56;5016210;28;20339;-77
2022/07/26 10:15:47;;;;;;;4.38;2.10;;;;;;;23.24;71.83;100430.63;5015677;28;20052;-77
2022/07/26 10:18:36;;;;;;;4.00;2.30;;;;;;;23.47;69.91;100434.25;5025639;28;20055;-77
2022/07/26 10:21:22;;;;;;;3.08;2.38;;;;;;;23.88;66.89;100422.94;5014122;28;20041;-77
2022/07/26 10:24:00;;;;;;;5.50;2.75;;;;;;;24.63;65.02;100417.66;5027605;28;20043;-77
2022/07/26 10:26:30;;;;;;;3.33;1.95;;;;;;;25.24;59.29;100412.56;5011931;28;20079;-78
2022/07/26 10:29:14;;;;;;;4.63;2.47;;;;;;;26.00;58.02;100409.59;5039975;28;20163;-77
2022/07/26 10:31:59;;;;;;;5.70;2.13;;;;;;;26.34;57.45;100412.81;5003164;28;20041;-78
2022/07/26 10:34:30;;;;;;;3.17;2.20;;;;;;;25.80;56.20;100412.19;5043652;28;20053;-78
2022/07/26 10:36:59;;;;;;;3.25;2.13;;;;;;;25.55;58.50;100412.59;5023086;28;20055;-81
2022/07/26 10:39:25;;;;;;;4.78;2.30;;;;;;;25.16;58.01;100415.06;5010152;28;20044;-78
2022/07/26 10:42:06;;;;;;;4.20;2.33;;;;;;;24.77;57.62;100411.13;5019832;28;20038;-78
2022/07/26 10:44:37;;;;;;;4.43;2.20;;;;;;;24.61;59.67;100411.53;5026282;28;20037;-79
2022/07/26 10:47:14;;;;;;;2.97;2.47;;;;;;;24.52;62.04;100411.44;5022859;28;20044;-77
2022/07/26 10:49:56;;;;;;;3.65;2.40;;;;;;;24.39;57.96;100422.44;5025550;28;20561;-78
2022/07/26 10:52:26;;;;;;;2.85;2.08;;;;;;;24.47;60.26;100419.94;5044570;28;20041;-78
2022/07/26 10:54:55;;;;;;;3.13;2.10;;;;;;;24.56;60.11;100416.50;5027002;28;20056;-78
2022/07/26 10:57:29;;;;;;;3.00;2.03;;;;;;;24.68;59.20;100415.47;5030297;28;20067;-78
2022/07/26 10:59:56;;;;;;;;;;;;;;;24.66;57.81;100422.84;5051697;28;20043;-78
2022/07/26 11:02:31;;;;;;;3.50;1.88;;;;;;;25.08;57.60;100416.69;5024975;28;20414;-77
2022/07/26 11:04:59;;;;;;;2.90;2.03;;;;;;;25.61;60.09;100428.28;5033163;28;20507;-79
2022/07/26 11:07:27;;;;;;;2.95;2.30;;;;;;;26.21;53.38;100418.47;5025795;28;20124;-78
2022/07/26 11:09:55;;;;;;;5.95;2.20;;;;;;;26.38;51.45;100419.69;5018707;28;20037;-79
2022/07/26 11:12:22;;;;;;;4.78;2.05;;;;;;;26.44;51.42;100419.16;5012240;28;20057;-78
2022/07/26 11:14:49;;;;;;;3.22;1.90;;;;;;;26.50;50.30;100418.59;5026780;28;20033;-78
2022/07/26 11:17:27;;;;;;;3.10;1.98;;;;;;;26.80;51.17;100423.06;5010412;28;20128;-78
2022/07/26 11:19:55;;;;;;;4.70;2.00;;;;;;;27.15;50.32;100427.94;5030888;28;20105;-78
2022/07/26 11:22:30;;;;;;;4.13;2.10;;;;;;;26.52;48.94;100423.88;5025930;28;20048;-78
2022/07/26 11:24:57;;;;;;;2.83;2.60;;;;;;;26.07;50.00;100421.59;5032125;28;20128;-79
2022/07/26 11:27:24;;;;;;;2.95;1.92;;;;;;;25.81;54.50;100423.88;5036437;28;20045;-78